Disney Magic — C6PT7 — position and weather

sailwx.info

Track history (hours):
 
Tides and Currents Weather Stations Pressure Air Temp Water Temp Dewpoint Dewpoint Depression Visibility Wind Speed Wind Dir Waves Ship Positions

Disney Magic

Last reported at 2019-Mar-24 04:38 UTC. Time now 2019-Mar-24 09:15 UTC.
Position N 25°53' W 079°23'.

Type: Passenger vessel. MMSI: 308516000.

Date/timePositionNaut miles runAvg speedWind from/ knotsBaromVisibWave heightAir tempDewpointWater temp
2019-Mar-24 04:38N 25°53' W 079°23'220.9
2019-Mar-24 04:30N 25°51' W 079°24'1121.1
2019-Mar-24 04:00N 25°42' W 079°31'1020.5
2019-Mar-24 03:30N 25°34' W 079°37'1121.3
2019-Mar-24 03:00N 25°25' W 079°43'17 0.6
2019-Mar-22 23:46N 25°16' W 079°59'514.9
2019-Mar-22 23:27N 25°21' W 079°59'714.8
2019-Mar-22 23:01N 25°27' W 079°58'714.7
2019-Mar-22 22:31N 25°35' W 079°57'714.6
2019-Mar-22 22:01N 25°42' W 079°60'612.7
2019-Mar-22 21:30N 25°46' W 080°05'5 9.5
2019-Mar-22 21:00N 25°47' W 080°10'0 0.9
2019-Mar-22 20:28N 25°47' W 080°10'0 0.0
2019-Mar-22 19:58N 25°47' W 080°10'0 0.0
2019-Mar-22 19:28N 25°47' W 080°10'0 0.0
2019-Mar-22 18:58N 25°47' W 080°10'0 0.0
2019-Mar-22 18:28N 25°47' W 080°10'0 0.0
2019-Mar-22 17:58N 25°47' W 080°10'0 0.0
2019-Mar-22 17:28N 25°47' W 080°10'0 0.0
2019-Mar-22 16:58N 25°47' W 080°10'0 0.0
2019-Mar-22 16:28N 25°47' W 080°10'0 0.0
2019-Mar-22 15:55N 25°47' W 080°10'0 0.0
2019-Mar-22 15:28N 25°47' W 080°10'0 0.0
2019-Mar-22 14:58N 25°47' W 080°10'0 0.0
2019-Mar-22 14:28N 25°47' W 080°10'0 0.0
2019-Mar-22 13:58N 25°47' W 080°10'0 0.0
2019-Mar-22 13:28N 25°47' W 080°10'0 0.0
2019-Mar-22 12:58N 25°47' W 080°10'0 0.0
2019-Mar-22 12:28N 25°47' W 080°10'0 0.0
2019-Mar-22 11:58N 25°47' W 080°10'0 0.0
2019-Mar-22 11:22N 25°47' W 080°10'0 0.0
2019-Mar-22 10:58N 25°47' W 080°10'0 0.0
2019-Mar-22 10:28N 25°47' W 080°10'0 0.0
2019-Mar-22 09:58N 25°47' W 080°10'0 0.0
2019-Mar-22 09:28N 25°47' W 080°10'0 0.9
2019-Mar-22 09:01N 25°47' W 080°11'2 3.7
2019-Mar-22 08:30N 25°46' W 080°09'5 9.2
2019-Mar-22 08:00N 25°46' W 080°04'3 6.5
2019-Mar-22 07:30N 25°48' W 080°01'3 5.6
2019-Mar-22 07:00N 25°49' W 079°58'3 6.5
2019-Mar-22 06:30N 25°51' W 079°55'4 7.3
2019-Mar-22 06:01N 25°53' W 079°51'4 8.0
2019-Mar-22 05:31N 25°55' W 079°48'4 8.0
2019-Mar-22 05:00N 25°57' W 079°44'4 8.4
2019-Mar-22 04:30N 25°59' W 079°40'713.2
2019-Mar-22 04:00N 26°03' W 079°34'815.9
2019-Mar-22 03:31N 26°07' W 079°26'816.3
2019-Mar-22 03:01N 26°11' W 079°18'18 0.8
2019-Mar-21 04:23N 25°54' W 079°24'717.6
2019-Mar-21 04:00N 25°48' W 079°26'917.7
2019-Mar-21 03:31N 25°39' W 079°28'917.6
2019-Mar-21 03:01N 25°31' W 079°31'49618.1
2019-Mar-19 23:37N 20°42' W 086°50'223.9
2019-Mar-19 23:30N 20°40' W 086°52'1019.6
2019-Mar-19 23:00N 20°32' W 086°57'1 2.2
2019-Mar-19 22:30N 20°31' W 086°57'0 0.0
2019-Mar-19 22:00N 20°31' W 086°57'0 0.0
2019-Mar-19 21:30N 20°31' W 086°57'0 0.0
2019-Mar-19 21:00N 20°31' W 086°57'0 0.0
2019-Mar-19 20:30N 20°31' W 086°57'0 0.0
2019-Mar-19 20:00N 20°31' W 086°57'0 0.0
2019-Mar-19 19:30N 20°31' W 086°57'0 0.0
2019-Mar-19 19:00N 20°31' W 086°57'0 0.0
2019-Mar-19 18:27N 20°31' W 086°57'0 0.0
2019-Mar-19 18:00N 20°31' W 086°57'0 0.0
2019-Mar-19 17:30N 20°31' W 086°57'0 0.0
2019-Mar-19 17:00N 20°31' W 086°57'0 0.0
2019-Mar-19 16:30N 20°31' W 086°57'0 0.0
2019-Mar-19 16:00N 20°31' W 086°57'0 0.0
2019-Mar-19 15:30N 20°31' W 086°57'0 0.0
2019-Mar-19 15:00N 20°31' W 086°57'0 0.0
2019-Mar-19 14:30N 20°31' W 086°57'0 0.0
2019-Mar-19 14:00N 20°31' W 086°57'0 0.0
2019-Mar-19 13:30N 20°31' W 086°57'0 0.0
2019-Mar-19 13:00N 20°31' W 086°57'0 0.0
2019-Mar-19 12:30N 20°31' W 086°57'0 0.0
2019-Mar-19 12:00N 20°31' W 086°57'1 2.6
2019-Mar-19 11:30N 20°32' W 086°57'510.5
2019-Mar-19 11:00N 20°37' W 086°55'4 7.1
2019-Mar-19 10:30N 20°39' W 086°52'3 5.7
2019-Mar-19 10:00N 20°41' W 086°50'49014.1
2019-Mar-17 23:17N 25°29' W 079°40'415.0
2019-Mar-17 23:00N 25°32' W 079°43'816.0
2019-Mar-17 22:30N 25°37' W 079°50'815.5
2019-Mar-17 22:00N 25°42' W 079°57'714.6
2019-Mar-17 21:30N 25°46' W 080°04'5 9.4
2019-Mar-17 21:00N 25°46' W 080°09'2 2.9
2019-Mar-17 20:29N 25°47' W 080°10'0 0.0
2019-Mar-17 19:59N 25°47' W 080°10'0 0.0
2019-Mar-17 19:29N 25°47' W 080°10'0 0.0
2019-Mar-17 18:59N 25°47' W 080°10'0 0.0
2019-Mar-17 18:29N 25°47' W 080°10'0 0.0
2019-Mar-17 17:59N 25°47' W 080°10'0 0.0
2019-Mar-17 17:26N 25°47' W 080°10'0 0.0
2019-Mar-17 16:59N 25°47' W 080°10'0 0.0
2019-Mar-17 16:26N 25°47' W 080°10'0 0.0
2019-Mar-17 15:56N 25°47' W 080°10'0 0.0
2019-Mar-17 15:26N 25°47' W 080°10'0 0.0
2019-Mar-17 14:59N 25°47' W 080°10'0 0.0
2019-Mar-17 14:29N 25°47' W 080°10'0 0.0
2019-Mar-17 13:59N 25°47' W 080°10'0 0.0
2019-Mar-17 13:30N 25°47' W 080°10'0 0.0
2019-Mar-17 12:59N 25°47' W 080°10'0 0.0
2019-Mar-17 12:29N 25°47' W 080°10'0 0.0
2019-Mar-17 11:59N 25°47' W 080°10'0 0.0
2019-Mar-17 11:29N 25°47' W 080°10'0 0.0
2019-Mar-17 10:59N 25°47' W 080°10'0 0.0
2019-Mar-17 10:29N 25°47' W 080°10'0 0.4
2019-Mar-17 10:01N 25°47' W 080°11'2 3.8
2019-Mar-17 09:30N 25°46' W 080°09'4 7.9
2019-Mar-17 09:01N 25°46' W 080°04'3 5.5
2019-Mar-17 08:31N 25°47' W 080°02'4 7.7
2019-Mar-17 08:01N 25°49' W 079°58'4 7.2
2019-Mar-17 07:31N 25°51' W 079°55'3 6.9
2019-Mar-17 07:00N 25°53' W 079°51'3 6.7
2019-Mar-17 06:30N 25°55' W 079°48'3 6.6
2019-Mar-17 06:00N 25°57' W 079°45'4 6.9
2019-Mar-17 05:30N 25°58' W 079°42'4 7.2
2019-Mar-17 05:00N 26°00' W 079°38'4 7.1
2019-Mar-17 04:30N 26°02' W 079°35'4 7.3
2019-Mar-17 04:00N 26°05' W 079°32'4 7.4
2019-Mar-17 03:30N 26°07' W 079°28'714.8
2019-Mar-17 03:00N 26°11' W 079°21'22 0.5
2019-Mar-15 04:23N 25°49' W 079°25'822.2
2019-Mar-15 04:00N 25°42' W 079°30'1122.2
2019-Mar-15 03:31N 25°33' W 079°37'1020.8
2019-Mar-15 03:00N 25°24' W 079°43'  
Track history (hours):
 
Tides and Currents Weather Stations Pressure Air Temp Water Temp Dewpoint Dewpoint Depression Visibility Wind Speed Wind Dir Waves Ship Positions

Disney Magic

Last reported at 2019-Mar-24 04:38 UTC. Time now 2019-Mar-24 09:15 UTC.
Position N 25°53' W 079°23'.

Type: Passenger vessel. MMSI: 308516000.

Date/timePositionNaut miles runAvg speedWind from/ knotsBaromVisibWave heightAir tempDewpointWater temp
2019-Mar-24 04:38N 25°53' W 079°23'220.9
2019-Mar-24 04:30N 25°51' W 079°24'1121.1
2019-Mar-24 04:00N 25°42' W 079°31'1020.5
2019-Mar-24 03:30N 25°34' W 079°37'1121.3
2019-Mar-24 03:00N 25°25' W 079°43'17 0.6
2019-Mar-22 23:46N 25°16' W 079°59'514.9
2019-Mar-22 23:27N 25°21' W 079°59'714.8
2019-Mar-22 23:01N 25°27' W 079°58'714.7
2019-Mar-22 22:31N 25°35' W 079°57'714.6
2019-Mar-22 22:01N 25°42' W 079°60'612.7
2019-Mar-22 21:30N 25°46' W 080°05'5 9.5
2019-Mar-22 21:00N 25°47' W 080°10'0 0.9
2019-Mar-22 20:28N 25°47' W 080°10'0 0.0
2019-Mar-22 19:58N 25°47' W 080°10'0 0.0
2019-Mar-22 19:28N 25°47' W 080°10'0 0.0
2019-Mar-22 18:58N 25°47' W 080°10'0 0.0
2019-Mar-22 18:28N 25°47' W 080°10'0 0.0
2019-Mar-22 17:58N 25°47' W 080°10'0 0.0
2019-Mar-22 17:28N 25°47' W 080°10'0 0.0
2019-Mar-22 16:58N 25°47' W 080°10'0 0.0
2019-Mar-22 16:28N 25°47' W 080°10'0 0.0
2019-Mar-22 15:55N 25°47' W 080°10'0 0.0
2019-Mar-22 15:28N 25°47' W 080°10'0 0.0
2019-Mar-22 14:58N 25°47' W 080°10'0 0.0
2019-Mar-22 14:28N 25°47' W 080°10'0 0.0
2019-Mar-22 13:58N 25°47' W 080°10'0 0.0
2019-Mar-22 13:28N 25°47' W 080°10'0 0.0
2019-Mar-22 12:58N 25°47' W 080°10'0 0.0
2019-Mar-22 12:28N 25°47' W 080°10'0 0.0
2019-Mar-22 11:58N 25°47' W 080°10'0 0.0
2019-Mar-22 11:22N 25°47' W 080°10'0 0.0
2019-Mar-22 10:58N 25°47' W 080°10'0 0.0
2019-Mar-22 10:28N 25°47' W 080°10'0 0.0
2019-Mar-22 09:58N 25°47' W 080°10'0 0.0
2019-Mar-22 09:28N 25°47' W 080°10'0 0.9
2019-Mar-22 09:01N 25°47' W 080°11'2 3.7
2019-Mar-22 08:30N 25°46' W 080°09'5 9.2
2019-Mar-22 08:00N 25°46' W 080°04'3 6.5
2019-Mar-22 07:30N 25°48' W 080°01'3 5.6
2019-Mar-22 07:00N 25°49' W 079°58'3 6.5
2019-Mar-22 06:30N 25°51' W 079°55'4 7.3
2019-Mar-22 06:01N 25°53' W 079°51'4 8.0
2019-Mar-22 05:31N 25°55' W 079°48'4 8.0
2019-Mar-22 05:00N 25°57' W 079°44'4 8.4
2019-Mar-22 04:30N 25°59' W 079°40'713.2
2019-Mar-22 04:00N 26°03' W 079°34'815.9
2019-Mar-22 03:31N 26°07' W 079°26'816.3
2019-Mar-22 03:01N 26°11' W 079°18'18 0.8
2019-Mar-21 04:23N 25°54' W 079°24'717.6
2019-Mar-21 04:00N 25°48' W 079°26'917.7
2019-Mar-21 03:31N 25°39' W 079°28'917.6
2019-Mar-21 03:01N 25°31' W 079°31'49618.1
2019-Mar-19 23:37N 20°42' W 086°50'223.9
2019-Mar-19 23:30N 20°40' W 086°52'1019.6
2019-Mar-19 23:00N 20°32' W 086°57'1 2.2
2019-Mar-19 22:30N 20°31' W 086°57'0 0.0
2019-Mar-19 22:00N 20°31' W 086°57'0 0.0
2019-Mar-19 21:30N 20°31' W 086°57'0 0.0
2019-Mar-19 21:00N 20°31' W 086°57'0 0.0
2019-Mar-19 20:30N 20°31' W 086°57'0 0.0
2019-Mar-19 20:00N 20°31' W 086°57'0 0.0
2019-Mar-19 19:30N 20°31' W 086°57'0 0.0
2019-Mar-19 19:00N 20°31' W 086°57'0 0.0
2019-Mar-19 18:27N 20°31' W 086°57'0 0.0
2019-Mar-19 18:00N 20°31' W 086°57'0 0.0
2019-Mar-19 17:30N 20°31' W 086°57'0 0.0
2019-Mar-19 17:00N 20°31' W 086°57'0 0.0
2019-Mar-19 16:30N 20°31' W 086°57'0 0.0
2019-Mar-19 16:00N 20°31' W 086°57'0 0.0
2019-Mar-19 15:30N 20°31' W 086°57'0 0.0
2019-Mar-19 15:00N 20°31' W 086°57'0 0.0
2019-Mar-19 14:30N 20°31' W 086°57'0 0.0
2019-Mar-19 14:00N 20°31' W 086°57'0 0.0
2019-Mar-19 13:30N 20°31' W 086°57'0 0.0
2019-Mar-19 13:00N 20°31' W 086°57'0 0.0
2019-Mar-19 12:30N 20°31' W 086°57'0 0.0
2019-Mar-19 12:00N 20°31' W 086°57'1 2.6
2019-Mar-19 11:30N 20°32' W 086°57'510.5
2019-Mar-19 11:00N 20°37' W 086°55'4 7.1
2019-Mar-19 10:30N 20°39' W 086°52'3 5.7
2019-Mar-19 10:00N 20°41' W 086°50'49014.1
2019-Mar-17 23:17N 25°29' W 079°40'415.0
2019-Mar-17 23:00N 25°32' W 079°43'816.0
2019-Mar-17 22:30N 25°37' W 079°50'815.5
2019-Mar-17 22:00N 25°42' W 079°57'714.6
2019-Mar-17 21:30N 25°46' W 080°04'5 9.4
2019-Mar-17 21:00N 25°46' W 080°09'2 2.9
2019-Mar-17 20:29N 25°47' W 080°10'0 0.0
2019-Mar-17 19:59N 25°47' W 080°10'0 0.0
2019-Mar-17 19:29N 25°47' W 080°10'0 0.0
2019-Mar-17 18:59N 25°47' W 080°10'0 0.0
2019-Mar-17 18:29N 25°47' W 080°10'0 0.0
2019-Mar-17 17:59N 25°47' W 080°10'0 0.0
2019-Mar-17 17:26N 25°47' W 080°10'0 0.0
2019-Mar-17 16:59N 25°47' W 080°10'0 0.0
2019-Mar-17 16:26N 25°47' W 080°10'0 0.0
2019-Mar-17 15:56N 25°47' W 080°10'0 0.0
2019-Mar-17 15:26N 25°47' W 080°10'0 0.0
2019-Mar-17 14:59N 25°47' W 080°10'0 0.0
2019-Mar-17 14:29N 25°47' W 080°10'0 0.0
2019-Mar-17 13:59N 25°47' W 080°10'0 0.0
2019-Mar-17 13:30N 25°47' W 080°10'0 0.0
2019-Mar-17 12:59N 25°47' W 080°10'0 0.0
2019-Mar-17 12:29N 25°47' W 080°10'0 0.0
2019-Mar-17 11:59N 25°47' W 080°10'0 0.0
2019-Mar-17 11:29N 25°47' W 080°10'0 0.0
2019-Mar-17 10:59N 25°47' W 080°10'0 0.0
2019-Mar-17 10:29N 25°47' W 080°10'0 0.4
2019-Mar-17 10:01N 25°47' W 080°11'2 3.8
2019-Mar-17 09:30N 25°46' W 080°09'4 7.9
2019-Mar-17 09:01N 25°46' W 080°04'3 5.5
2019-Mar-17 08:31N 25°47' W 080°02'4 7.7
2019-Mar-17 08:01N 25°49' W 079°58'4 7.2
2019-Mar-17 07:31N 25°51' W 079°55'3 6.9
2019-Mar-17 07:00N 25°53' W 079°51'3 6.7
2019-Mar-17 06:30N 25°55' W 079°48'3 6.6
2019-Mar-17 06:00N 25°57' W 079°45'4 6.9
2019-Mar-17 05:30N 25°58' W 079°42'4 7.2
2019-Mar-17 05:00N 26°00' W 079°38'4 7.1
2019-Mar-17 04:30N 26°02' W 079°35'4 7.3
2019-Mar-17 04:00N 26°05' W 079°32'4 7.4
2019-Mar-17 03:30N 26°07' W 079°28'714.8
2019-Mar-17 03:00N 26°11' W 079°21'22 0.5
2019-Mar-15 04:23N 25°49' W 079°25'822.2
2019-Mar-15 04:00N 25°42' W 079°30'1122.2
2019-Mar-15 03:31N 25°33' W 079°37'1020.8
2019-Mar-15 03:00N 25°24' W 079°43'  

Dump ship's entire track history